Time;durP1;ratioP1;P1;durP2;ratioP2;P2;SDS_P1;SDS_P2;PMS_P1;PMS_P2;Temp;Humidity;BMP_temperature;BMP_pressure;BME280_temperature;BME280_humidity;BME280_pressure;Samples;Min_cycle;Max_cycle;Signal;HPM_P1;HPM_P2
2022/12/22 03:26:48;;;;;;;1.00;1.00;;;20.60;50.40;;;;;;6086963;23;20510;-63
2022/12/22 03:29:14;;;;;;;1.10;1.00;;;20.60;50.50;;;;;;6088653;23;20026;-63
2022/12/22 03:31:40;;;;;;;1.05;1.05;;;20.50;50.50;;;;;;6085671;23;20680;-62
2022/12/22 03:34:06;;;;;;;1.23;1.13;;;20.50;50.40;;;;;;6086506;23;20954;-62
2022/12/22 03:36:31;;;;;;;1.05;0.95;;;20.50;50.40;;;;;;6087530;23;20014;-62
2022/12/22 03:38:57;;;;;;;0.90;0.90;;;20.50;50.40;;;;;;6085515;23;20626;-62
2022/12/22 03:46:51;;;;;;;1.13;1.00;;;20.50;50.40;;;;;;6088910;23;20515;-62
2022/12/22 03:49:18;;;;;;;1.10;1.00;;;20.50;50.40;;;;;;6086565;23;20053;-62
2022/12/22 03:51:43;;;;;;;0.88;0.88;;;20.50;50.40;;;;;;6088904;23;20379;-62
2022/12/22 03:54:15;;;;;;;0.82;0.82;;;20.50;50.40;;;;;;6087808;23;20119;-62
2022/12/22 03:56:41;;;;;;;0.70;0.70;;;20.50;50.40;;;;;;6087345;23;20163;-62
2022/12/22 03:59:07;;;;;;;1.17;1.10;;;20.50;50.40;;;;;;6088219;23;20029;-63
2022/12/22 04:01:37;;;;;;;1.02;0.82;;;20.50;50.30;;;;;;6087294;23;20469;-63
2022/12/22 04:04:03;;;;;;;1.30;0.90;;;20.50;50.30;;;;;;6088253;23;20018;-62
2022/12/22 04:06:29;;;;;;;0.80;0.80;;;20.50;50.40;;;;;;6086777;23;20081;-63
2022/12/22 04:08:54;;;;;;;0.90;0.90;;;20.50;50.40;;;;;;6085970;23;20094;-63
2022/12/22 04:14:04;;;;;;;0.85;0.85;;;20.40;50.30;;;;;;6086441;23;20097;-62
2022/12/22 04:16:30;;;;;;;0.95;0.88;;;20.40;50.40;;;;;;6087837;23;20052;-62
2022/12/22 04:18:56;;;;;;;1.00;1.00;;;20.40;50.30;;;;;;6087640;23;20641;-62
2022/12/22 04:21:22;;;;;;;0.80;0.80;;;20.40;50.30;;;;;;6088427;23;20014;-63
2022/12/22 04:23:50;;;;;;;1.02;1.00;;;20.40;50.40;;;;;;6088149;23;20025;-62
2022/12/22 04:26:17;;;;;;;1.60;0.98;;;20.40;50.40;;;;;;6088012;23;20077;-63
2022/12/22 04:28:43;;;;;;;1.00;1.00;;;20.40;50.40;;;;;;6086376;23;20053;-62
2022/12/22 04:31:08;;;;;;;0.90;0.90;;;20.40;50.30;;;;;;6088443;23;20045;-63
2022/12/22 04:33:34;;;;;;;1.13;1.10;;;20.40;50.30;;;;;;6088239;23;20385;-63
2022/12/22 04:36:00;;;;;;;1.25;1.15;;;20.40;50.40;;;;;;6087970;23;20475;-63
2022/12/22 04:38:26;;;;;;;0.90;0.90;;;20.40;50.30;;;;;;6087870;23;20022;-63
2022/12/22 04:40:52;;;;;;;1.05;1.02;;;20.40;50.30;;;;;;6086924;23;20026;-62
2022/12/22 04:43:18;;;;;;;1.35;1.25;;;20.40;50.40;;;;;;6086188;23;20530;-62
2022/12/22 04:45:44;;;;;;;1.10;1.00;;;20.40;50.40;;;;;;6087664;23;20081;-61
2022/12/22 04:48:10;;;;;;;1.13;1.13;;;20.30;50.30;;;;;;6087963;23;20074;-63
2022/12/22 04:50:35;;;;;;;0.90;0.90;;;20.30;50.30;;;;;;6088009;23;20053;-62
2022/12/22 04:53:02;;;;;;;0.80;0.80;;;20.30;50.30;;;;;;6086278;23;20347;-61
2022/12/22 04:55:27;;;;;;;0.90;0.90;;;20.30;50.30;;;;;;6087939;23;20030;-63
2022/12/22 04:57:53;;;;;;;1.15;1.10;;;20.30;50.40;;;;;;6088336;23;20455;-62
2022/12/22 05:00:19;;;;;;;1.23;1.20;;;20.30;50.40;;;;;;6086789;23;20029;-62
2022/12/22 05:02:44;;;;;;;1.08;1.08;;;20.30;50.40;;;;;;6061719;23;20022;-63
2022/12/22 05:05:10;;;;;;;1.20;1.10;;;20.30;50.30;;;;;;6084825;23;20600;-62
2022/12/22 05:07:36;;;;;;;1.00;1.00;;;20.30;50.40;;;;;;6085972;23;20014;-62
2022/12/22 05:10:04;;;;;;;1.38;1.27;;;20.30;50.40;;;;;;6088794;23;20052;-62
2022/12/22 05:15:13;;;;;;;1.38;1.27;;;20.30;50.40;;;;;;6088068;23;20097;-62
2022/12/22 05:17:39;;;;;;;1.00;1.00;;;20.20;50.40;;;;;;6086139;23;20045;-63
2022/12/22 05:20:05;;;;;;;1.50;1.40;;;20.30;50.40;;;;;;6086222;23;20011;-63
2022/12/22 05:22:31;;;;;;;1.25;1.15;;;20.20;50.40;;;;;;6088674;23;20101;-63
2022/12/22 05:24:57;;;;;;;1.05;1.05;;;20.20;50.40;;;;;;6087245;23;20097;-62
2022/12/22 05:27:22;;;;;;;1.33;0.95;;;20.20;51.10;;;;;;6085393;23;20057;-61
2022/12/22 05:29:48;;;;;;;1.30;1.20;;;20.20;50.50;;;;;;6086643;23;20335;-60
2022/12/22 05:32:14;;;;;;;1.13;1.13;;;20.20;50.40;;;;;;6085279;23;20816;-59
2022/12/22 05:34:39;;;;;;;1.15;1.05;;;20.20;50.50;;;;;;6085434;23;20142;-60
2022/12/22 05:37:05;;;;;;;1.08;1.00;;;20.20;50.50;;;;;;6087007;23;20014;-60
2022/12/22 05:39:30;;;;;;;1.05;0.95;;;20.20;50.40;;;;;;6086931;23;20442;-61
2022/12/22 05:41:56;;;;;;;2.83;1.27;;;20.10;50.40;;;;;;6086762;23;20018;-62
2022/12/22 05:44:22;;;;;;;1.17;1.13;;;20.20;50.40;;;;;;6086761;23;20344;-61
2022/12/22 05:46:51;;;;;;;1.10;1.00;;;20.10;50.30;;;;;;6086667;23;20357;-60
2022/12/22 05:49:17;;;;;;;1.13;1.05;;;20.10;50.40;;;;;;6086286;23;20015;-61
2022/12/22 05:51:43;;;;;;;1.05;1.05;;;20.20;50.50;;;;;;6085144;23;20035;-61
2022/12/22 05:54:09;;;;;;;1.38;1.10;;;20.10;50.40;;;;;;6084328;23;20703;-60
2022/12/22 05:56:35;;;;;;;1.58;0.98;;;20.10;50.40;;;;;;6086271;23;20049;-63
2022/12/22 05:59:01;;;;;;;1.65;0.90;;;20.10;50.50;;;;;;6085242;23;20089;-62
2022/12/22 06:01:26;;;;;;;2.58;1.10;;;20.10;50.50;;;;;;6087733;23;20429;-62
2022/12/22 06:03:52;;;;;;;2.03;1.00;;;20.10;50.60;;;;;;6085721;23;20018;-63
2022/12/22 06:06:18;;;;;;;0.90;0.90;;;20.10;50.60;;;;;;6084856;23;20018;-62
2022/12/22 06:08:43;;;;;;;3.45;1.33;;;20.10;50.60;;;;;;6084996;23;20100;-62
2022/12/22 06:11:09;;;;;;;2.65;1.30;;;20.10;50.60;;;;;;6086274;23;20470;-62
2022/12/22 06:13:35;;;;;;;2.83;1.30;;;20.10;50.60;;;;;;6085689;23;20092;-62
2022/12/22 06:16:00;;;;;;;1.40;1.20;;;20.10;50.80;;;;;;6086150;23;20016;-62
2022/12/22 06:18:27;;;;;;;2.47;1.48;;;20.10;50.90;;;;;;6086150;23;20459;-62
2022/12/22 06:20:53;;;;;;;3.22;1.23;;;20.10;50.80;;;;;;6086082;23;20081;-63
2022/12/22 06:23:20;;;;;;;5.00;1.05;;;20.10;50.70;;;;;;6085447;23;20022;-62
2022/12/22 06:25:57;;;;;;;2.10;1.30;;;20.10;50.70;;;;;;6087497;23;20032;-62
2022/12/22 06:28:23;;;;;;;6.82;1.67;;;20.10;50.80;;;;;;6087396;23;20014;-62
2022/12/22 06:30:48;;;;;;;2.25;1.33;;;20.10;50.80;;;;;;6086167;23;20466;-62
2022/12/22 06:33:14;;;;;;;1.85;1.73;;;20.10;50.90;;;;;;6086601;23;20014;-61
2022/12/22 06:35:40;;;;;;;7.97;1.75;;;20.00;50.80;;;;;;6084616;23;20034;-61
2022/12/22 06:38:05;;;;;;;2.78;1.42;;;20.10;50.90;;;;;;6058427;23;20026;-62
2022/12/22 06:40:31;;;;;;;3.50;1.30;;;20.30;50.40;;;;;;6083667;23;20015;-62
2022/12/22 06:43:09;;;;;;;1.60;1.50;;;21.10;49.20;;;;;;6082548;23;20410;-62
2022/12/22 06:45:42;;;;;;;4.43;1.48;;;21.90;47.70;;;;;;6083793;23;20094;-62
2022/12/22 06:48:09;;;;;;;3.63;1.48;;;22.60;46.10;;;;;;6086625;23;20121;-62
2022/12/22 06:50:35;;;;;;;2.03;1.20;;;23.10;45.10;;;;;;6062477;23;20042;-63
2022/12/22 06:53:01;;;;;;;3.80;1.38;;;23.30;44.50;;;;;;6088456;23;20433;-63
2022/12/22 06:55:27;;;;;;;2.90;1.10;;;23.40;44.40;;;;;;6063830;23;20022;-59
2022/12/22 06:57:52;;;;;;;2.58;1.40;;;23.40;44.40;;;;;;6089112;23;20015;-62
2022/12/22 07:00:19;;;;;;;1.92;0.98;;;23.30;44.60;;;;;;6087743;23;20044;-63
2022/12/22 07:02:44;;;;;;;1.75;1.30;;;23.20;44.60;;;;;;6089845;23;20014;-62
2022/12/22 07:05:10;;;;;;;3.08;1.58;;;23.20;44.80;;;;;;6089455;23;20018;-64
2022/12/22 07:07:35;;;;;;;1.60;1.50;;;23.10;44.80;;;;;;6089606;23;20339;-62
2022/12/22 07:10:02;;;;;;;1.70;1.60;;;23.00;45.00;;;;;;6088615;23;20010;-61
2022/12/22 07:12:28;;;;;;;10.05;1.80;;;22.90;45.10;;;;;;6086406;23;20443;-62
2022/12/22 07:14:53;;;;;;;1.83;1.67;;;22.80;45.40;;;;;;6088615;23;20078;-62
2022/12/22 07:17:19;;;;;;;3.05;2.20;;;22.70;45.60;;;;;;6061525;23;20045;-59
2022/12/22 07:19:45;;;;;;;2.22;2.03;;;22.60;45.70;;;;;;6088432;23;20018;-62
2022/12/22 07:22:10;;;;;;;4.82;2.15;;;22.60;45.80;;;;;;6086502;23;20113;-62
2022/12/22 07:24:36;;;;;;;2.22;1.95;;;22.60;46.00;;;;;;6086814;23;20097;-62
2022/12/22 07:27:01;;;;;;;3.15;2.35;;;22.50;46.20;;;;;;6085540;23;20117;-62
2022/12/22 07:29:27;;;;;;;3.10;2.35;;;22.50;46.20;;;;;;6087601;23;20086;-63
2022/12/22 07:31:53;;;;;;;2.72;2.10;;;22.50;46.20;;;;;;6086555;23;20021;-62
2022/12/22 07:34:18;;;;;;;4.25;2.28;;;22.50;46.20;;;;;;6085032;23;20083;-62
2022/12/22 07:36:44;;;;;;;3.88;2.00;;;22.50;46.20;;;;;;6085381;23;20386;-62
2022/12/22 07:39:11;;;;;;;4.93;2.30;;;22.50;46.20;;;;;;6085234;23;20019;-63
2022/12/22 07:44:21;;;;;;;2.60;2.00;;;22.50;46.20;;;;;;6087430;23;20355;-62
2022/12/22 07:46:46;;;;;;;8.20;2.28;;;22.50;46.20;;;;;;6087820;23;20014;-62
2022/12/22 07:51:58;;;;;;;4.00;2.35;;;22.50;46.20;;;;;;6086022;23;20018;-61
2022/12/22 07:54:24;;;;;;;4.00;2.17;;;22.50;46.20;;;;;;6087807;23;20022;-63
2022/12/22 07:56:50;;;;;;;4.18;2.40;;;22.50;46.30;;;;;;6085913;23;20126;-62
2022/12/22 07:59:16;;;;;;;3.55;2.90;;;22.50;46.20;;;;;;6087692;23;20117;-62
2022/12/22 08:01:42;;;;;;;3.78;2.90;;;22.50;46.20;;;;;;6086454;23;20806;-62
2022/12/22 08:04:09;;;;;;;7.50;3.85;;;22.50;46.20;;;;;;6061114;23;20018;-62
2022/12/22 08:06:35;;;;;;;4.57;3.60;;;22.50;46.30;;;;;;6089174;23;20015;-61
2022/12/22 08:09:01;;;;;;;6.32;4.13;;;22.60;46.40;;;;;;6088465;23;20018;-62
2022/12/22 08:11:27;;;;;;;6.18;4.07;;;22.60;46.40;;;;;;6088294;23;20045;-62
2022/12/22 08:13:53;;;;;;;7.45;4.20;;;22.60;46.50;;;;;;6063295;23;20097;-62
2022/12/22 08:16:20;;;;;;;9.20;4.03;;;22.60;46.60;;;;;;6086405;23;20030;-61
2022/12/22 08:18:46;;;;;;;5.35;4.03;;;22.60;46.70;;;;;;6088266;23;20097;-62
2022/12/22 08:21:11;;;;;;;6.28;3.75;;;22.60;46.60;;;;;;6088045;23;20018;-61
2022/12/22 08:23:37;;;;;;;5.72;3.35;;;22.60;46.70;;;;;;6087985;23;20015;-61
2022/12/22 08:26:15;;;;;;;6.93;3.75;;;22.60;46.70;;;;;;6088999;23;20112;-62
2022/12/22 08:28:49;;;;;;;7.65;3.60;;;22.60;46.60;;;;;;6062090;23;20018;-62
2022/12/22 08:31:15;;;;;;;4.72;3.22;;;22.60;46.50;;;;;;6088472;23;20025;-62
2022/12/22 08:33:41;;;;;;;4.22;3.50;;;22.60;47.10;;;;;;6086711;23;20053;-61
2022/12/22 08:36:08;;;;;;;4.10;2.78;;;22.60;46.30;;;;;;6086877;23;20061;-62
2022/12/22 08:38:37;;;;;;;4.50;3.00;;;22.60;46.30;;;;;;6088631;23;20073;-61
2022/12/22 08:41:03;;;;;;;4.63;3.00;;;22.60;46.20;;;;;;6086839;23;20355;-60
2022/12/22 08:43:31;;;;;;;3.70;3.28;;;22.60;46.20;;;;;;6086235;23;20014;-61
2022/12/22 08:45:57;;;;;;;4.60;3.05;;;22.60;46.10;;;;;;6088087;23;20015;-60
2022/12/22 08:48:22;;;;;;;4.85;3.05;;;22.60;46.10;;;;;;6087914;23;20118;-61
2022/12/22 08:50:48;;;;;;;6.60;3.30;;;22.60;46.00;;;;;;6086648;23;20376;-62
2022/12/22 08:53:14;;;;;;;4.45;3.20;;;22.60;46.00;;;;;;6088978;23;20010;-61
2022/12/22 08:55:40;;;;;;;4.75;3.05;;;22.50;46.00;;;;;;6088799;23;20014;-61
2022/12/22 08:58:05;;;;;;;5.60;3.40;;;22.50;46.00;;;;;;6087153;23;20465;-61
2022/12/22 09:00:31;;;;;;;4.18;3.30;;;22.50;46.00;;;;;;6088372;23;20018;-61
2022/12/22 09:02:57;;;;;;;7.85;3.75;;;22.50;46.00;;;;;;6087896;23;20022;-61
2022/12/22 09:05:23;;;;;;;5.80;3.60;;;22.50;46.00;;;;;;6087533;23;20407;-61
2022/12/22 09:07:48;;;;;;;7.80;3.78;;;22.50;46.00;;;;;;6086914;23;20018;-61
2022/12/22 09:10:14;;;;;;;5.38;3.22;;;22.50;46.00;;;;;;6087403;23;20133;-60
2022/12/22 09:12:40;;;;;;;5.15;3.80;;;22.50;46.10;;;;;;6087132;23;20014;-61
2022/12/22 09:15:10;;;;;;;6.18;3.22;;;22.50;46.30;;;;;;6085904;23;20788;-61
2022/12/22 09:17:36;;;;;;;7.90;3.60;;;22.50;46.50;;;;;;6087994;23;20120;-61
2022/12/22 09:20:03;;;;;;;5.40;3.30;;;22.50;46.80;;;;;;6087658;23;20482;-61
2022/12/22 09:22:29;;;;;;;4.88;2.50;;;22.60;46.90;;;;;;6087476;23;20018;-60
2022/12/22 09:24:55;;;;;;;4.18;2.97;;;22.60;46.90;;;;;;6087107;23;20026;-60
2022/12/22 09:27:20;;;;;;;3.92;3.17;;;22.60;46.90;;;;;;6088231;23;20014;-61
2022/12/22 09:29:46;;;;;;;4.43;3.20;;;22.60;47.00;;;;;;6087311;23;20046;-61
2022/12/22 09:32:11;;;;;;;8.40;2.70;;;22.60;47.00;;;;;;6085301;23;20014;-60
2022/12/22 09:34:37;;;;;;;3.15;2.70;;;22.60;47.00;;;;;;6084624;23;20030;-61
2022/12/22 09:37:05;;;;;;;6.53;3.10;;;22.60;47.10;;;;;;6087067;23;20022;-61
2022/12/22 09:39:31;;;;;;;3.58;2.60;;;22.60;47.20;;;;;;6084798;23;20014;-61
2022/12/22 09:41:58;;;;;;;4.75;2.55;;;22.60;47.10;;;;;;6087595;23;20018;-60
2022/12/22 09:44:38;;;;;;;4.13;2.80;;;22.60;47.20;;;;;;6087289;23;20439;-61
2022/12/22 09:47:34;;;;;;;5.50;2.47;;;22.70;47.20;;;;;;6086337;23;20018;-61
2022/12/22 09:50:01;;;;;;;4.72;2.20;;;22.70;47.20;;;;;;6087866;23;20053;-61
2022/12/22 09:52:43;;;;;;;7.18;2.97;;;22.70;47.20;;;;;;6087924;23;20006;-61
2022/12/22 09:55:19;;;;;;;2.17;1.77;;;22.70;47.00;;;;;;6087651;23;20018;-60
2022/12/22 09:57:45;;;;;;;4.45;2.10;;;22.70;47.10;;;;;;6088004;23;20106;-61
2022/12/22 10:00:17;;;;;;;3.45;2.15;;;22.60;47.00;;;;;;6087353;23;20077;-61
2022/12/22 10:03:01;;;;;;;2.85;2.08;;;22.60;47.00;;;;;;6086758;23;20023;-61
2022/12/22 10:05:42;;;;;;;2.65;1.80;;;22.60;47.00;;;;;;6085751;23;20075;-60
2022/12/22 10:08:25;;;;;;;2.78;1.70;;;22.60;46.90;;;;;;6061539;23;20024;-61
2022/12/22 10:10:55;;;;;;;3.08;1.70;;;22.60;46.90;;;;;;6086294;23;20042;-61
2022/12/22 10:13:21;;;;;;;2.80;1.83;;;22.60;47.00;;;;;;6085520;23;20014;-61
2022/12/22 10:15:47;;;;;;;1.88;1.50;;;22.60;46.90;;;;;;6086342;23;20017;-61
2022/12/22 10:18:19;;;;;;;4.00;1.83;;;22.60;46.80;;;;;;6086823;23;20024;-61
2022/12/22 10:21:04;;;;;;;3.35;1.63;;;22.60;46.70;;;;;;6085306;23;20010;-60
2022/12/22 10:23:33;;;;;;;2.22;1.70;;;22.60;46.70;;;;;;6085515;23;20052;-61
2022/12/22 10:26:04;;;;;;;2.28;1.70;;;22.60;46.70;;;;;;6087574;23;20015;-60
2022/12/22 10:29:05;;;;;;;4.35;1.70;;;22.60;46.70;;;;;;6085791;23;20022;-61
2022/12/22 10:31:33;;;;;;;1.52;1.42;;;22.60;46.70;;;;;;6080826;23;20019;-61
2022/12/22 10:34:14;;;;;;;2.50;1.50;;;22.60;46.80;;;;;;6087144;23;20034;-60
2022/12/22 10:36:46;;;;;;;2.20;1.48;;;22.60;46.60;;;;;;6085677;23;20090;-61
2022/12/22 10:39:23;;;;;;;1.50;1.40;;;22.60;46.60;;;;;;6086878;23;20069;-61
2022/12/22 10:41:51;;;;;;;3.65;1.92;;;22.60;46.40;;;;;;6086134;23;20022;-64
2022/12/22 10:44:22;;;;;;;3.08;1.77;;;22.60;46.40;;;;;;6088009;23;20376;-63
2022/12/22 10:46:50;;;;;;;3.03;1.55;;;22.60;46.40;;;;;;6085999;23;20037;-61
2022/12/22 10:49:38;;;;;;;4.20;1.80;;;22.60;46.40;;;;;;6088283;23;20021;-62
2022/12/22 10:52:22;;;;;;;1.88;1.70;;;22.60;46.30;;;;;;6085734;23;20010;-63
2022/12/22 10:54:48;;;;;;;2.80;1.77;;;22.60;46.40;;;;;;6062262;23;20025;-60
2022/12/22 10:57:14;;;;;;;1.88;1.52;;;22.60;46.40;;;;;;6086298;23;20351;-60
2022/12/22 11:00:01;;;;;;;3.90;2.03;;;22.60;46.40;;;;;;6085197;23;20491;-60
2022/12/22 11:02:36;;;;;;;4.95;1.75;;;22.60;47.20;;;;;;6087745;23;20362;-59
2022/12/22 11:05:07;;;;;;;2.88;1.83;;;22.60;46.70;;;;;;6084611;23;20029;-60
2022/12/22 11:07:36;;;;;;;2.30;1.75;;;22.60;46.70;;;;;;6087211;23;20112;-60
2022/12/22 11:10:13;;;;;;;3.47;1.67;;;22.60;46.90;;;;;;6084396;23;20046;-60
2022/12/22 11:13:02;;;;;;;4.50;2.13;;;22.60;47.00;;;;;;6085931;23;20037;-61
2022/12/22 11:15:53;;;;;;;2.58;1.63;;;22.70;47.30;;;;;;6084640;23;20093;-60
2022/12/22 11:18:30;;;;;;;2.45;1.70;;;22.70;47.40;;;;;;6084891;23;20015;-62
2022/12/22 11:21:01;;;;;;;8.85;2.03;;;22.70;47.40;;;;;;6086220;23;20023;-60
2022/12/22 11:23:47;;;;;;;2.05;1.70;;;22.70;47.40;;;;;;6087149;23;20102;-60
2022/12/22 11:26:19;;;;;;;4.22;1.77;;;22.70;47.50;;;;;;6087437;23;20097;-60
2022/12/22 11:29:12;;;;;;;4.50;1.80;;;22.70;47.60;;;;;;6083259;23;20015;-61
2022/12/22 11:32:02;;;;;;;4.07;1.83;;;22.70;47.70;;;;;;6084986;23;20090;-62
2022/12/22 11:34:49;;;;;;;4.57;1.50;;;22.70;47.60;;;;;;6085550;23;20054;-61
2022/12/22 11:37:38;;;;;;;2.80;1.30;;;22.70;47.70;;;;;;6060397;23;20090;-60
2022/12/22 11:40:35;;;;;;;3.70;1.90;;;22.80;47.90;;;;;;6087190;23;20323;-61
2022/12/22 11:43:49;;;;;;;4.32;1.60;;;22.80;47.90;;;;;;6109934;23;20344;-61
2022/12/22 11:46:31;;;;;;;3.83;1.98;;;22.80;48.10;;;;;;6080860;23;20018;-61
2022/12/22 11:49:21;;;;;;;5.43;1.75;;;22.70;48.00;;;;;;6087111;23;20379;-61
2022/12/22 11:52:00;;;;;;;3.63;1.40;;;22.80;48.10;;;;;;6089296;23;20022;-60
2022/12/22 11:54:28;;;;;;;2.53;1.75;;;22.80;48.20;;;;;;6089201;23;20018;-61
2022/12/22 11:57:25;;;;;;;2.22;1.58;;;22.80;48.10;;;;;;6087584;23;20050;-61
2022/12/22 12:00:09;;;;;;;3.50;1.50;;;22.80;48.10;;;;;;6082108;23;20081;-61
2022/12/22 12:03:03;;;;;;;2.90;1.48;;;22.80;48.10;;;;;;6089201;23;20029;-61
2022/12/22 12:05:58;;;;;;;3.17;1.50;;;22.80;48.30;;;;;;6087388;23;20023;-61
2022/12/22 12:08:31;;;;;;;3.25;1.52;;;22.70;48.20;;;;;;6088497;23;20069;-63
2022/12/22 12:11:08;;;;;;;5.80;1.75;;;22.70;48.40;;;;;;6088343;23;20014;-63
2022/12/22 12:13:43;;;;;;;2.95;1.67;;;22.70;48.40;;;;;;6087794;23;20121;-63
2022/12/22 12:16:19;;;;;;;3.63;1.85;;;22.80;48.60;;;;;;6086247;23;20082;-64
2022/12/22 12:19:05;;;;;;;2.35;1.65;;;22.80;48.50;;;;;;6086019;23;20025;-63
2022/12/22 12:21:41;;;;;;;2.75;1.35;;;22.80;48.40;;;;;;6088186;23;20019;-62
2022/12/22 12:24:19;;;;;;;3.15;1.50;;;22.80;48.40;;;;;;6087688;23;20402;-63
2022/12/22 12:26:54;;;;;;;3.92;1.80;;;22.80;48.30;;;;;;6085048;23;20070;-63
2022/12/22 12:29:24;;;;;;;4.25;1.75;;;22.80;48.30;;;;;;6084836;23;20010;-63
2022/12/22 12:32:04;;;;;;;5.35;2.10;;;22.80;48.20;;;;;;6087775;23;20093;-63
2022/12/22 12:34:34;;;;;;;4.13;1.50;;;22.90;48.20;;;;;;6085742;23;20062;-63
2022/12/22 12:37:11;;;;;;;3.00;1.63;;;22.80;48.20;;;;;;6061313;23;20046;-63
2022/12/22 12:40:05;;;;;;;3.15;1.50;;;22.80;48.20;;;;;;6087926;23;20022;-63
2022/12/22 12:42:39;;;;;;;3.53;1.30;;;22.80;48.30;;;;;;6086105;23;20026;-63
2022/12/22 12:45:31;;;;;;;2.75;1.52;;;22.80;48.30;;;;;;6088217;23;20018;-62
2022/12/22 12:48:23;;;;;;;2.63;1.63;;;22.80;48.20;;;;;;6075871;23;20089;-63
2022/12/22 12:50:56;;;;;;;3.03;1.55;;;22.80;48.20;;;;;;6042558;23;20018;-63
2022/12/22 12:53:23;;;;;;;3.95;1.58;;;22.70;48.20;;;;;;6086067;23;20014;-63
2022/12/22 12:55:49;;;;;;;3.83;1.35;;;22.70;48.10;;;;;;6084506;23;20122;-63
2022/12/22 12:58:34;;;;;;;4.05;1.70;;;22.70;48.20;;;;;;6081746;23;20474;-63
2022/12/22 13:01:08;;;;;;;2.90;1.55;;;22.70;48.30;;;;;;6088128;23;20030;-63
2022/12/22 13:03:40;;;;;;;3.55;1.20;;;22.70;48.30;;;;;;6038904;23;20453;-63
2022/12/22 13:06:08;;;;;;;1.88;1.35;;;22.70;48.20;;;;;;6063291;23;20030;-62
2022/12/22 13:08:59;;;;;;;2.75;1.33;;;22.70;48.20;;;;;;6085264;23;20011;-62
2022/12/22 13:11:36;;;;;;;2.03;1.00;;;22.80;48.20;;;;;;6060302;23;20014;-63
2022/12/22 13:14:02;;;;;;;2.22;1.40;;;22.80;48.20;;;;;;6084539;23;20018;-64
2022/12/22 13:16:31;;;;;;;4.40;1.40;;;22.70;48.10;;;;;;6088320;23;20235;-64
2022/12/22 13:19:01;;;;;;;2.67;1.58;;;22.80;48.10;;;;;;6086073;23;20018;-62
2022/12/22 13:21:29;;;;;;;2.42;1.40;;;22.80;48.00;;;;;;6088173;23;20018;-63
2022/12/22 13:23:55;;;;;;;3.10;1.10;;;22.70;47.90;;;;;;6086068;23;20028;-62
2022/12/22 13:26:25;;;;;;;2.60;1.20;;;22.70;47.90;;;;;;6087872;23;20019;-63
2022/12/22 13:28:57;;;;;;;2.87;1.47;;;22.70;47.90;;;;;;6085804;23;20019;-63
2022/12/22 13:31:40;;;;;;;3.00;1.63;;;22.70;47.80;;;;;;6061308;23;20097;-63
2022/12/22 13:34:19;;;;;;;2.70;1.08;;;22.80;47.80;;;;;;6087483;23;20018;-64
2022/12/22 13:36:47;;;;;;;2.10;1.10;;;22.80;47.70;;;;;;6087633;23;20339;-62
2022/12/22 13:39:14;;;;;;;1.45;0.98;;;22.70;47.70;;;;;;6087543;23;20108;-63
2022/12/22 13:41:43;;;;;;;4.72;1.50;;;22.80;47.70;;;;;;6086454;23;20025;-62
2022/12/22 13:44:19;;;;;;;2.33;1.15;;;22.70;47.50;;;;;;6087710;23;20028;-62
2022/12/22 13:46:45;;;;;;;1.52;0.90;;;22.80;47.50;;;;;;6086979;23;20109;-63
2022/12/22 13:49:17;;;;;;;2.15;1.10;;;22.70;47.50;;;;;;6087650;23;20018;-63
2022/12/22 13:51:45;;;;;;;2.53;1.10;;;22.80;47.60;;;;;;6087851;23;20077;-63
2022/12/22 13:54:21;;;;;;;2.38;1.20;;;22.80;47.50;;;;;;6087767;23;20022;-63
2022/12/22 13:56:53;;;;;;;2.10;1.13;;;22.80;47.30;;;;;;6088153;23;20021;-63
2022/12/22 13:59:18;;;;;;;1.58;0.95;;;22.70;47.30;;;;;;6087239;23;20018;-62
2022/12/22 14:01:49;;;;;;;3.08;1.10;;;22.80;47.40;;;;;;6061318;23;20117;-63
2022/12/22 14:04:14;;;;;;;2.50;0.90;;;22.80;47.30;;;;;;6061766;23;20097;-62
2022/12/22 14:06:40;;;;;;;4.35;1.35;;;22.80;47.40;;;;;;6085994;23;20057;-63
2022/12/22 14:09:23;;;;;;;3.05;1.20;;;22.70;47.30;;;;;;6086513;23;20371;-64
2022/12/22 14:11:56;;;;;;;4.38;1.25;;;22.80;47.40;;;;;;6085059;23;20454;-63
2022/12/22 14:14:28;;;;;;;4.28;1.30;;;22.80;47.50;;;;;;6087563;23;20388;-63
2022/12/22 14:16:57;;;;;;;2.83;1.33;;;22.80;47.60;;;;;;6086224;23;20018;-63
2022/12/22 14:19:24;;;;;;;2.63;1.35;;;22.80;48.60;;;;;;6087237;23;20089;-63
2022/12/22 14:22:13;;;;;;;3.88;1.40;;;22.80;48.00;;;;;;6086880;23;20031;-63
2022/12/22 14:24:53;;;;;;;3.10;1.60;;;22.80;48.20;;;;;;6086748;23;20085;-63
2022/12/22 14:27:32;;;;;;;2.65;1.48;;;22.80;48.20;;;;;;6062618;23;20018;-65
2022/12/22 14:30:00;;;;;;;1.70;1.02;;;22.80;48.40;;;;;;6087026;23;20355;-65
2022/12/22 14:32:47;;;;;;;3.25;1.45;;;22.80;48.50;;;;;;6085149;23;20080;-65
2022/12/22 14:35:19;;;;;;;1.88;0.98;;;22.80;48.50;;;;;;6084479;23;20026;-63
2022/12/22 14:38:05;;;;;;;2.80;1.10;;;22.90;48.40;;;;;;6086734;23;20089;-64
2022/12/22 14:40:36;;;;;;;2.05;1.02;;;22.90;48.40;;;;;;6087884;23;20093;-64
2022/12/22 14:43:16;;;;;;;7.22;1.50;;;22.80;48.40;;;;;;6085908;23;20022;-64
2022/12/22 14:45:42;;;;;;;2.60;1.13;;;22.80;48.60;;;;;;6086020;23;20022;-65
2022/12/22 14:48:15;;;;;;;4.07;1.40;;;22.80;48.60;;;;;;6085331;23;20018;-64
2022/12/22 14:50:48;;;;;;;2.80;1.40;;;22.80;48.60;;;;;;6087075;23;20018;-64
2022/12/22 14:53:15;;;;;;;3.15;1.30;;;22.80;48.60;;;;;;6086318;23;20215;-64
2022/12/22 14:55:48;;;;;;;2.15;1.20;;;22.80;48.60;;;;;;6084073;23;20023;-63
2022/12/22 14:58:20;;;;;;;3.08;1.27;;;22.80;48.60;;;;;;6086311;23;20023;-65
2022/12/22 15:01:38;;;;;;;1.90;0.90;;;22.80;48.60;;;;;;6087192;23;20074;-64
2022/12/22 15:04:03;;;;;;;2.95;1.27;;;22.80;48.70;;;;;;6067116;23;20346;-65
2022/12/22 15:06:36;;;;;;;1.60;1.15;;;22.80;48.80;;;;;;6062047;23;20017;-64
2022/12/22 15:09:13;;;;;;;2.58;1.20;;;22.80;48.80;;;;;;6085022;23;20015;-66
2022/12/22 15:11:52;;;;;;;2.97;1.40;;;22.80;48.90;;;;;;6088746;23;20018;-64
2022/12/22 15:14:24;;;;;;;2.78;1.27;;;22.80;48.70;;;;;;6063180;23;20801;-64
2022/12/22 15:16:54;;;;;;;1.73;1.00;;;22.80;48.70;;;;;;6088957;23;20022;-63
2022/12/22 15:19:21;;;;;;;2.90;1.23;;;22.80;48.70;;;;;;6087686;23;20691;-64
2022/12/22 15:21:48;;;;;;;2.28;1.10;;;22.80;48.60;;;;;;6088897;23;20018;-63
2022/12/22 15:24:16;;;;;;;1.92;1.00;;;22.80;48.50;;;;;;6088618;23;20765;-64
2022/12/22 15:26:42;;;;;;;1.98;1.08;;;22.80;48.50;;;;;;6086996;23;20073;-65
2022/12/22 15:29:07;;;;;;;2.67;1.38;;;22.90;48.40;;;;;;6062554;23;20037;-65
2022/12/22 15:31:34;;;;;;;1.88;0.95;;;22.90;48.20;;;;;;6088962;23;20093;-64
2022/12/22 15:34:02;;;;;;;1.77;1.10;;;22.90;48.20;;;;;;6062646;23;20440;-64
2022/12/22 15:36:28;;;;;;;1.92;1.08;;;22.90;48.10;;;;;;6089309;23;20022;-64
2022/12/22 15:38:54;;;;;;;2.10;1.40;;;22.90;48.10;;;;;;6089204;23;20441;-64
2022/12/22 15:41:19;;;;;;;2.22;1.00;;;22.80;48.00;;;;;;6089408;23;20447;-64
2022/12/22 15:43:45;;;;;;;1.65;1.15;;;22.80;48.00;;;;;;6086897;23;20014;-64
2022/12/22 15:46:15;;;;;;;3.38;1.42;;;22.80;48.00;;;;;;6087745;23;20022;-64
2022/12/22 15:48:42;;;;;;;3.75;1.20;;;22.80;47.90;;;;;;6089262;23;20014;-64
2022/12/22 15:51:21;;;;;;;2.00;1.40;;;22.80;47.80;;;;;;6089982;23;20338;-64
2022/12/22 15:53:47;;;;;;;1.83;1.30;;;22.80;47.70;;;;;;6088667;23;20413;-64
2022/12/22 15:56:20;;;;;;;1.50;1.10;;;22.80;47.70;;;;;;6089077;23;20018;-62
2022/12/22 15:58:45;;;;;;;1.83;1.17;;;22.80;47.60;;;;;;6088652;23;20018;-63
2022/12/22 16:01:11;;;;;;;1.90;1.30;;;22.80;47.50;;;;;;6088529;23;20431;-63
2022/12/22 16:03:37;;;;;;;1.20;1.10;;;22.80;47.60;;;;;;6085904;23;20018;-63
2022/12/22 16:06:05;;;;;;;2.03;1.30;;;22.80;48.40;;;;;;6088402;23;20321;-64
2022/12/22 16:08:36;;;;;;;1.95;1.30;;;22.80;47.70;;;;;;6086944;23;20014;-64
2022/12/22 16:11:04;;;;;;;2.03;1.15;;;22.80;47.80;;;;;;6087830;23;20073;-64
2022/12/22 16:13:30;;;;;;;2.28;1.35;;;22.80;47.90;;;;;;6089481;23;20883;-64
2022/12/22 16:15:57;;;;;;;3.22;1.33;;;22.80;48.10;;;;;;6087743;23;20093;-64
2022/12/22 16:18:22;;;;;;;1.33;1.23;;;22.80;48.10;;;;;;6087810;23;20014;-64
2022/12/22 16:20:51;;;;;;;1.95;1.20;;;22.80;48.10;;;;;;6087143;23;20018;-64
2022/12/22 16:23:21;;;;;;;1.92;1.50;;;22.90;48.10;;;;;;6086992;23;20014;-64
2022/12/22 16:25:47;;;;;;;5.60;2.00;;;22.90;48.00;;;;;;6086985;23;20029;-64
2022/12/22 16:28:19;;;;;;;3.17;2.25;;;22.90;48.00;;;;;;6080554;23;20447;-64
2022/12/22 16:30:46;;;;;;;6.57;2.67;;;22.90;48.10;;;;;;6061721;23;20396;-64
2022/12/22 16:33:12;;;;;;;5.18;2.83;;;22.90;48.10;;;;;;6086615;23;20028;-64
2022/12/22 16:35:38;;;;;;;5.30;2.75;;;22.90;48.00;;;;;;6086820;23;20029;-65
2022/12/22 16:38:04;;;;;;;4.20;2.50;;;22.90;47.90;;;;;;6085232;23;20026;-66
2022/12/22 16:40:32;;;;;;;9.55;3.03;;;22.90;47.70;;;;;;6084780;23;20022;-64
2022/12/22 16:43:10;;;;;;;6.40;2.80;;;23.00;47.70;;;;;;6061348;23;20022;-63
2022/12/22 16:45:37;;;;;;;6.93;3.40;;;23.00;47.70;;;;;;6085715;23;20030;-64
2022/12/22 16:48:11;;;;;;;10.63;4.18;;;22.90;47.80;;;;;;6087341;23;20356;-64